createdAt,value
2023-05-05T00:02:45.297Z,10.87
2023-05-05T00:05:55.487Z,10.82
2023-05-05T00:08:58.918Z,10.76
2023-05-05T00:12:02.287Z,10.81
2023-05-05T00:15:05.970Z,10.79
2023-05-05T00:18:09.698Z,10.76
2023-05-05T00:21:13.625Z,10.79
2023-05-05T00:24:17.027Z,10.64
2023-05-05T00:27:20.215Z,10.58
2023-05-05T00:30:23.607Z,10.47
2023-05-05T00:33:27.490Z,10.33
2023-05-05T00:36:30.671Z,10.34
2023-05-05T00:39:34.553Z,10.33
2023-05-05T00:42:51.026Z,10.24
2023-05-05T00:46:01.371Z,10.24
2023-05-05T00:49:05.975Z,10.01
2023-05-05T00:52:10.318Z,9.95
2023-05-05T00:55:14.042Z,9.93
2023-05-05T00:58:18.452Z,9.88
2023-05-05T01:01:22.637Z,9.84
2023-05-05T01:04:29.016Z,9.89
2023-05-05T01:07:40.799Z,9.92
2023-05-05T01:10:50.685Z,9.73
2023-05-05T01:14:13.803Z,9.66
2023-05-05T01:17:19.536Z,9.66
2023-05-05T01:20:29.571Z,9.68
2023-05-05T01:24:13.795Z,9.63
2023-05-05T01:27:19.607Z,9.67
2023-05-05T01:30:41.181Z,9.59
2023-05-05T01:33:48.402Z,9.58
2023-05-05T01:36:58.563Z,9.61
2023-05-05T01:40:07.024Z,9.59
2023-05-05T01:43:13.751Z,9.59
2023-05-05T01:46:19.421Z,9.59
2023-05-05T01:49:23.791Z,9.50
2023-05-05T01:52:28.211Z,9.47
2023-05-05T01:55:33.569Z,9.50
2023-05-05T01:58:38.205Z,9.40
2023-05-05T02:01:44.879Z,9.38
2023-05-05T02:04:51.981Z,9.28
2023-05-05T02:07:58.231Z,9.31
2023-05-05T02:11:01.644Z,9.20
2023-05-05T02:14:07.442Z,9.09
2023-05-05T02:17:12.336Z,8.97
2023-05-05T02:20:17.229Z,8.94
2023-05-05T02:23:20.545Z,8.82
2023-05-05T02:26:24.956Z,8.73
2023-05-05T02:29:34.205Z,8.67
2023-05-05T02:32:45.391Z,8.73
2023-05-05T02:35:52.136Z,8.67
2023-05-05T02:39:03.536Z,8.60
2023-05-05T02:42:15.828Z,8.70
2023-05-05T02:45:22.406Z,8.68
2023-05-05T02:48:26.866Z,8.65
2023-05-05T02:51:31.115Z,8.61
2023-05-05T02:54:38.072Z,8.63
2023-05-05T02:58:02.490Z,8.76
2023-05-05T03:01:29.393Z,8.90
2023-05-05T03:04:39.971Z,8.96
2023-05-05T03:07:54.002Z,8.98
2023-05-05T03:11:05.188Z,8.80
2023-05-05T03:14:13.405Z,8.84
2023-05-05T03:17:19.883Z,8.78
2023-05-05T03:20:23.599Z,8.68
2023-05-05T03:23:27.284Z,8.64
2023-05-05T03:26:34.364Z,8.72
2023-05-05T03:29:37.518Z,8.77
2023-05-05T03:32:44.840Z,8.89
2023-05-05T03:35:47.898Z,8.97
2023-05-05T03:38:53.995Z,8.99
2023-05-05T03:42:36.797Z,9.00
2023-05-05T03:45:40.179Z,9.13
2023-05-05T03:48:43.828Z,9.16
2023-05-05T03:51:47.836Z,9.21
2023-05-05T03:54:51.507Z,9.24
2023-05-05T03:57:54.705Z,9.27
2023-05-05T04:00:57.770Z,9.41
2023-05-05T04:04:02.514Z,9.55
2023-05-05T04:07:06.190Z,9.62
2023-05-05T04:10:10.167Z,9.66
2023-05-05T04:13:13.298Z,9.74
2023-05-05T04:16:16.855Z,9.84
2023-05-05T04:19:20.244Z,10.00
2023-05-05T04:22:23.478Z,10.06
2023-05-05T04:25:27.009Z,10.21
2023-05-05T04:28:30.352Z,10.32
2023-05-05T04:31:33.639Z,10.42
2023-05-05T04:34:37.437Z,10.67
2023-05-05T04:37:41.319Z,10.73
2023-05-05T04:40:50.806Z,10.84
2023-05-05T04:43:55.690Z,11.02
2023-05-05T04:47:00.622Z,11.20
2023-05-05T04:50:04.312Z,11.49
2023-05-05T04:53:07.868Z,11.76
2023-05-05T04:56:11.240Z,11.94
2023-05-05T04:59:15.515Z,12.01
2023-05-05T05:02:18.897Z,12.16
2023-05-05T05:05:22.172Z,12.39
2023-05-05T05:08:25.442Z,12.57
2023-05-05T05:11:28.651Z,12.81
2023-05-05T05:14:39.494Z,12.97
2023-05-05T05:17:42.824Z,13.19
2023-05-05T05:20:46.512Z,13.38
2023-05-05T05:23:50.399Z,13.60
2023-05-05T05:26:53.573Z,13.88
2023-05-05T05:29:57.448Z,14.00
2023-05-05T05:33:02.474Z,14.15
2023-05-05T05:36:06.293Z,14.37
2023-05-05T05:39:09.433Z,14.64
2023-05-05T05:42:12.906Z,14.93
2023-05-05T05:45:16.875Z,15.06
2023-05-05T05:48:22.374Z,15.08
2023-05-05T05:51:26.460Z,15.38
2023-05-05T05:54:30.158Z,15.66
2023-05-05T05:57:33.440Z,15.88
2023-05-05T06:00:40.103Z,16.15
2023-05-05T06:03:45.861Z,16.52
2023-05-05T06:06:49.360Z,16.75
2023-05-05T06:09:57.395Z,16.97
2023-05-05T06:13:00.915Z,17.09
2023-05-05T06:16:06.905Z,16.99
2023-05-05T06:19:10.842Z,17.45
2023-05-05T06:22:14.610Z,17.48
2023-05-05T06:25:18.074Z,17.42
2023-05-05T06:28:22.029Z,17.54
2023-05-05T06:31:25.312Z,17.61
2023-05-05T06:34:28.976Z,17.63
2023-05-05T06:37:32.175Z,17.75
2023-05-05T06:40:36.048Z,17.90
2023-05-05T06:43:39.885Z,18.17
2023-05-05T06:46:49.133Z,18.04
2023-05-05T06:49:52.493Z,18.07
2023-05-05T06:52:56.926Z,18.13
2023-05-05T06:56:00.388Z,17.98
2023-05-05T06:59:03.584Z,17.73
2023-05-05T07:02:07.112Z,17.86
2023-05-05T07:05:10.705Z,17.98
2023-05-05T07:08:13.833Z,18.21
2023-05-05T07:11:17.298Z,18.35
2023-05-05T07:14:22.099Z,18.32
2023-05-05T07:17:27.653Z,18.10
2023-05-05T07:20:30.997Z,18.32
2023-05-05T07:23:34.754Z,18.44
2023-05-05T07:26:38.592Z,18.30
2023-05-05T07:29:41.669Z,18.50
2023-05-05T07:32:47.055Z,18.61
2023-05-05T07:35:50.227Z,18.78
2023-05-05T07:38:53.660Z,19.13
2023-05-05T07:41:57.447Z,19.11
2023-05-05T07:45:00.858Z,19.14
2023-05-05T07:48:04.163Z,19.28
2023-05-05T07:51:07.222Z,19.40
2023-05-05T07:54:12.341Z,19.37
2023-05-05T07:57:15.733Z,19.63
2023-05-05T08:00:19.709Z,19.74
2023-05-05T08:03:24.905Z,19.65
2023-05-05T08:06:29.398Z,19.88
2023-05-05T08:09:32.534Z,19.48
2023-05-05T08:12:36.401Z,19.51
2023-05-05T08:15:39.747Z,19.44
2023-05-05T08:18:42.878Z,19.41
2023-05-05T08:21:47.615Z,19.75
2023-05-05T08:24:51.990Z,19.57
2023-05-05T08:27:55.138Z,19.69
2023-05-05T08:31:07.146Z,19.85
2023-05-05T08:34:13.910Z,20.17
2023-05-05T08:37:19.064Z,19.93
2023-05-05T08:40:29.459Z,20.07
2023-05-05T08:43:35.956Z,20.21
2023-05-05T08:46:39.326Z,20.28
2023-05-05T08:49:46.988Z,20.60
2023-05-05T08:52:57.561Z,20.61
2023-05-05T08:56:03.033Z,20.62
2023-05-05T08:59:07.034Z,20.27
2023-05-05T09:02:11.228Z,20.08
2023-05-05T09:05:15.369Z,20.04
2023-05-05T09:08:45.376Z,20.01
2023-05-05T09:11:48.769Z,19.95
2023-05-05T09:14:52.197Z,20.11
2023-05-05T09:17:58.476Z,20.08
2023-05-05T09:21:27.843Z,20.01
2023-05-05T09:24:32.002Z,20.51
2023-05-05T09:27:40.855Z,20.85
2023-05-05T09:30:47.602Z,21.00
2023-05-05T09:33:51.626Z,21.02
2023-05-05T09:36:54.966Z,21.16
2023-05-05T09:40:01.219Z,21.05
2023-05-05T09:43:04.529Z,21.02
2023-05-05T09:46:08.524Z,21.06
2023-05-05T09:49:19.774Z,20.91
2023-05-05T09:52:23.389Z,21.16
2023-05-05T09:55:26.736Z,21.25
2023-05-05T09:58:31.633Z,21.35
2023-05-05T10:01:35.442Z,21.62
2023-05-05T10:04:39.639Z,21.71
2023-05-05T10:07:47.959Z,21.78
2023-05-05T10:11:00.703Z,21.63
2023-05-05T10:14:06.810Z,21.50
2023-05-05T10:17:11.038Z,21.47
2023-05-05T10:20:16.030Z,21.67
2023-05-05T10:23:21.602Z,22.01
2023-05-05T10:26:26.868Z,22.12
2023-05-05T10:29:48.736Z,22.34
2023-05-05T10:33:07.883Z,22.50
2023-05-05T10:36:16.970Z,22.41
2023-05-05T10:39:21.330Z,22.49
2023-05-05T10:42:25.170Z,22.83
2023-05-05T10:45:28.851Z,22.90
2023-05-05T10:48:58.005Z,23.05
2023-05-05T10:52:19.814Z,23.37
2023-05-05T10:55:36.070Z,23.61
2023-05-05T10:58:58.200Z,23.52
2023-05-05T11:02:25.032Z,23.34
2023-05-05T11:05:28.430Z,23.33
2023-05-05T11:08:42.744Z,23.25
2023-05-05T11:12:05.696Z,23.19
2023-05-05T11:15:26.906Z,23.27
2023-05-05T11:18:35.882Z,23.10
2023-05-05T11:22:02.228Z,23.22
2023-05-05T11:25:41.047Z,23.33
2023-05-05T11:28:57.725Z,23.05
2023-05-05T11:32:16.434Z,23.03
2023-05-05T11:35:20.108Z,23.07
2023-05-05T11:39:13.353Z,23.05
2023-05-05T11:42:24.750Z,22.90
2023-05-05T11:45:28.063Z,22.85
2023-05-05T11:48:31.684Z,23.29
2023-05-05T11:51:35.225Z,23.35
2023-05-05T11:54:41.820Z,23.17
2023-05-05T11:57:45.128Z,22.96
2023-05-05T12:00:48.514Z,23.17
2023-05-05T12:03:52.011Z,23.41
2023-05-05T12:06:55.812Z,23.51
2023-05-05T12:10:00.090Z,23.46
2023-05-05T12:13:21.314Z,23.57
2023-05-05T12:16:24.522Z,23.73
2023-05-05T12:19:33.434Z,23.76
2023-05-05T12:22:36.570Z,23.63
2023-05-05T12:25:40.574Z,24.03
2023-05-05T12:28:48.282Z,24.38
2023-05-05T12:31:51.896Z,24.53
2023-05-05T12:34:57.756Z,24.09
2023-05-05T12:38:00.981Z,24.30
2023-05-05T12:41:04.028Z,24.09
2023-05-05T12:44:07.199Z,23.92
2023-05-05T12:47:12.037Z,23.61
2023-05-05T12:50:15.245Z,23.48
2023-05-05T12:53:25.718Z,23.30
2023-05-05T12:56:34.308Z,23.14
2023-05-05T12:59:37.889Z,23.35
2023-05-05T13:02:41.462Z,23.39
2023-05-05T13:05:45.063Z,23.31
2023-05-05T13:08:48.517Z,23.35
2023-05-05T13:11:52.689Z,23.34
2023-05-05T13:14:55.979Z,23.53
2023-05-05T13:18:01.353Z,23.59
2023-05-05T13:21:05.217Z,23.60
2023-05-05T13:24:25.288Z,23.74
2023-05-05T13:27:32.360Z,23.64
2023-05-05T13:30:35.429Z,23.44
2023-05-05T13:33:38.589Z,23.32
2023-05-05T13:36:42.072Z,23.33
2023-05-05T13:39:45.320Z,23.36
2023-05-05T13:42:48.706Z,23.21
2023-05-05T13:45:55.969Z,23.10
2023-05-05T13:49:03.660Z,22.97
2023-05-05T13:52:06.739Z,23.08
2023-05-05T13:55:10.218Z,22.95
2023-05-05T13:58:13.551Z,22.87
2023-05-05T14:01:16.486Z,22.65
2023-05-05T14:04:19.607Z,22.76
2023-05-05T14:07:22.994Z,22.52
2023-05-05T14:10:29.881Z,22.57
2023-05-05T14:13:32.873Z,22.54
2023-05-05T14:16:36.397Z,22.57
2023-05-05T14:19:39.439Z,22.59
2023-05-05T14:22:42.694Z,22.56
2023-05-05T14:25:45.565Z,22.50
2023-05-05T14:28:49.851Z,22.25
2023-05-05T14:31:53.662Z,22.17
2023-05-05T14:34:57.263Z,22.12
2023-05-05T14:38:00.462Z,22.12
2023-05-05T14:41:03.883Z,22.16
2023-05-05T14:44:07.186Z,22.07
2023-05-05T14:47:10.249Z,22.01
2023-05-05T14:50:14.348Z,22.06
2023-05-05T14:53:19.257Z,22.08
2023-05-05T14:56:22.917Z,22.05
2023-05-05T14:59:26.483Z,21.94
2023-05-05T15:02:30.009Z,21.94
2023-05-05T15:05:35.754Z,21.87
2023-05-05T15:08:41.857Z,21.85
2023-05-05T15:11:45.681Z,21.80
2023-05-05T15:14:49.341Z,21.91
2023-05-05T15:17:52.609Z,21.85
2023-05-05T15:20:55.704Z,21.82
2023-05-05T15:23:59.204Z,21.69
2023-05-05T15:27:03.073Z,21.54
2023-05-05T15:30:07.290Z,21.61
2023-05-05T15:33:10.601Z,21.53
2023-05-05T15:36:13.660Z,21.58
2023-05-05T15:39:17.545Z,21.44
2023-05-05T15:42:20.885Z,21.47
2023-05-05T15:45:23.725Z,21.51
2023-05-05T15:48:27.043Z,21.44
2023-05-05T15:51:30.087Z,21.50
2023-05-05T15:54:33.210Z,21.52
2023-05-05T15:57:36.231Z,21.49
2023-05-05T16:00:41.747Z,21.62
2023-05-05T16:03:45.737Z,21.50
2023-05-05T16:06:48.952Z,21.45
2023-05-05T16:09:52.622Z,21.44
2023-05-05T16:12:56.586Z,21.34
2023-05-05T16:15:59.835Z,21.40
2023-05-05T16:19:02.932Z,21.41
2023-05-05T16:22:06.532Z,21.36
2023-05-05T16:25:10.327Z,21.32
2023-05-05T16:28:13.866Z,21.24
2023-05-05T16:31:16.963Z,21.15
2023-05-05T16:34:20.267Z,21.18
2023-05-05T16:37:23.192Z,21.16
2023-05-05T16:40:26.205Z,21.04
2023-05-05T16:43:29.293Z,21.02
2023-05-05T16:46:35.589Z,21.07
2023-05-05T16:49:38.702Z,20.99
2023-05-05T16:52:41.923Z,20.86
2023-05-05T16:55:45.047Z,20.73
2023-05-05T16:58:47.917Z,20.65
2023-05-05T17:01:50.886Z,20.57
2023-05-05T17:04:53.935Z,20.46
2023-05-05T17:07:56.849Z,20.36
2023-05-05T17:10:59.779Z,20.31
2023-05-05T17:14:02.956Z,20.26
2023-05-05T17:17:07.168Z,20.15
2023-05-05T17:20:11.382Z,20.08
2023-05-05T17:23:14.450Z,19.98
2023-05-05T17:26:17.413Z,19.94
2023-05-05T17:29:21.751Z,19.83
2023-05-05T17:32:25.269Z,19.78
2023-05-05T17:35:28.340Z,19.71
2023-05-05T17:38:31.284Z,19.66
2023-05-05T17:41:34.378Z,19.56
2023-05-05T17:44:37.396Z,19.47
2023-05-05T17:47:40.380Z,19.35
2023-05-05T17:50:43.620Z,19.25
2023-05-05T17:53:46.679Z,19.14
2023-05-05T17:56:49.926Z,19.00
2023-05-05T17:59:53.823Z,18.87
2023-05-05T18:02:57.043Z,18.82
2023-05-05T18:06:00.149Z,18.68
2023-05-05T18:09:03.455Z,18.53
2023-05-05T18:12:07.936Z,18.38
2023-05-05T18:15:11.651Z,18.21
2023-05-05T18:18:14.988Z,18.13
2023-05-05T18:21:17.949Z,17.97
2023-05-05T18:24:21.359Z,17.84
2023-05-05T18:27:26.615Z,17.70
2023-05-05T18:30:29.890Z,17.59
2023-05-05T18:33:33.038Z,17.40
2023-05-05T18:36:36.340Z,17.33
2023-05-05T18:39:40.169Z,17.28
2023-05-05T18:42:44.190Z,17.20
2023-05-05T18:45:47.163Z,17.13
2023-05-05T18:48:50.712Z,17.09
2023-05-05T18:51:54.021Z,17.06
2023-05-05T18:54:57.179Z,16.92
2023-05-05T18:58:00.454Z,16.86
2023-05-05T19:01:03.737Z,16.80
2023-05-05T19:04:12.838Z,16.68
2023-05-05T19:07:33.743Z,16.60
2023-05-05T19:10:38.309Z,16.51
2023-05-05T19:13:41.775Z,16.46
2023-05-05T19:16:45.433Z,16.43
2023-05-05T19:19:49.055Z,16.34
2023-05-05T19:22:52.646Z,16.27
2023-05-05T19:25:56.121Z,16.21
2023-05-05T19:28:59.588Z,16.10
2023-05-05T19:32:02.770Z,16.06
2023-05-05T19:35:06.883Z,16.05
2023-05-05T19:38:10.469Z,15.98
2023-05-05T19:41:13.854Z,15.90
2023-05-05T19:44:17.034Z,15.88
2023-05-05T19:47:20.746Z,15.76
2023-05-05T19:50:24.466Z,15.66
2023-05-05T19:53:27.864Z,15.65
2023-05-05T19:56:31.088Z,15.61
2023-05-05T19:59:34.114Z,15.59
2023-05-05T20:02:39.922Z,15.53
2023-05-05T20:05:42.935Z,15.46
2023-05-05T20:08:46.320Z,15.33
2023-05-05T20:11:49.334Z,15.28
2023-05-05T20:14:52.290Z,15.24
2023-05-05T20:17:55.408Z,15.21
2023-05-05T20:20:59.133Z,15.18
2023-05-05T20:24:02.343Z,15.18
2023-05-05T20:27:05.781Z,15.14
2023-05-05T20:30:10.292Z,15.08
2023-05-05T20:33:13.986Z,14.99
2023-05-05T20:36:18.077Z,14.97
2023-05-05T20:39:21.367Z,14.88
2023-05-05T20:42:25.682Z,14.85
2023-05-05T20:45:31.797Z,14.83
2023-05-05T20:48:35.364Z,14.72
2023-05-05T20:51:39.020Z,14.68
2023-05-05T20:54:42.218Z,14.57
2023-05-05T20:57:45.249Z,14.54
2023-05-05T21:00:48.682Z,14.53
2023-05-05T21:03:51.993Z,14.37
2023-05-05T21:06:55.405Z,14.33
2023-05-05T21:09:58.273Z,14.23
2023-05-05T21:13:02.634Z,14.22
2023-05-05T21:16:05.940Z,14.17
2023-05-05T21:19:09.458Z,14.14
2023-05-05T21:22:12.848Z,14.09
2023-05-05T21:25:21.392Z,14.03
2023-05-05T21:28:24.520Z,13.98
2023-05-05T21:31:27.812Z,13.95
2023-05-05T21:34:30.829Z,14.01
2023-05-05T21:37:34.430Z,13.92
2023-05-05T21:40:37.643Z,13.87
2023-05-05T21:43:40.556Z,13.88
2023-05-05T21:46:43.896Z,13.86
2023-05-05T21:49:47.024Z,13.82
2023-05-05T21:52:50.275Z,13.74
2023-05-05T21:55:53.333Z,13.72
2023-05-05T21:58:57.032Z,13.66
2023-05-05T22:02:00.328Z,13.62
2023-05-05T22:05:03.402Z,13.52
2023-05-05T22:08:06.531Z,13.43
2023-05-05T22:11:09.774Z,13.37
2023-05-05T22:14:12.761Z,13.32
2023-05-05T22:17:16.144Z,13.31
2023-05-05T22:20:19.621Z,13.36
2023-05-05T22:23:22.981Z,13.32
2023-05-05T22:26:26.370Z,13.33
2023-05-05T22:29:29.568Z,13.31
2023-05-05T22:32:32.718Z,13.24
2023-05-05T22:35:37.507Z,13.18
2023-05-05T22:38:40.865Z,13.18
2023-05-05T22:41:44.760Z,13.20
2023-05-05T22:44:47.836Z,13.14
2023-05-05T22:47:51.182Z,13.05
2023-05-05T22:50:54.579Z,13.04
2023-05-05T22:53:57.592Z,12.97
2023-05-05T22:57:00.880Z,12.86
2023-05-05T23:00:05.500Z,12.74
2023-05-05T23:03:09.463Z,12.74
2023-05-05T23:06:12.785Z,12.67
2023-05-05T23:09:16.207Z,12.57
2023-05-05T23:12:20.176Z,12.56
2023-05-05T23:15:24.057Z,12.42
2023-05-05T23:18:27.156Z,12.41
2023-05-05T23:21:32.083Z,12.41
2023-05-05T23:24:37.340Z,12.38
2023-05-05T23:27:41.417Z,12.34
2023-05-05T23:30:44.609Z,12.35
2023-05-05T23:33:47.802Z,12.35
2023-05-05T23:36:51.854Z,12.33
2023-05-05T23:39:55.077Z,12.36
2023-05-05T23:42:58.760Z,12.29
2023-05-05T23:46:01.723Z,12.32
2023-05-05T23:49:04.986Z,12.29
2023-05-05T23:52:08.116Z,12.32
2023-05-05T23:55:11.776Z,12.33
2023-05-05T23:58:15.057Z,12.34
